Crawford, CO (81415)

9:24 PM MDT on April 28, 2017 (GMT -0600)
KCOCRAWF5 | | Change Station
Active Advisory: Freeze Warning

Elev 6896 ft 38.73 °N, 107.57 °W | Updated 5 minutes ago

Partly Cloudy
Partly Cloudy
34.3 °F
Feels Like 30 °F
N
5.0
Wind Variable Wind from North
Gusts 7.0 mph

Today
High -- | Low -- °F
--% Chance of Precip.
Yesterday
High -- | Low -- °F
Precip. -- in
Pressure 29.74 in
Visibility 10.0 miles
Clouds Mostly Cloudy 11000 ft
Windchill 30 °F
Dew Point 22 °F
Humidity 60%
Rainfall 0.00 in
Snow Depth Not available.
6:16 AM 8:00 PM
Waxing Crescent, 10% visible
METAR KMTJ 290253Z AUTO 16012KT 10SM BKN110 04/M05 A2981 RMK AO2 SLP070 T00441050 53005
Pressure 29.74 in
Visibility 10.0 miles
Clouds Mostly Cloudy 11000 ft
Windchill 30 °F
Dew Point 22 °F
Humidity 60%
Rainfall 0.00 in
Snow Depth Not available.
6:16 AM 8:00 PM
Waxing Crescent, 10% visible
METAR KMTJ 290253Z AUTO 16012KT 10SM BKN110 04/M05 A2981 RMK AO2 SLP070 T00441050 53005

Get Your Daily Forecast Email!

Thanks for signing up!

Be on the lookout for a verification email in your inbox.

You'll start receiving severe weather alerts in your inbox..

×

10-Day Weather Forecast

Almanac

Astronomy

Apr. 28, 2017 Rise Set
Actual Time
Civil Twilight
Nautical Twilight
Astronomical Twilight
Moon
Length of Visible Light
Length of Day
Tomorrow will be .
, % of the Moon is Illuminated

Today's Extremes

State Highs State Lows

Community

WunderPhotos

WunderBlog® & News

Nearby

Air Quality

  Air Quality AQ Index Pollutant
Not available.

Snow Depth

Station Depth Elevation

Earthquake Activity

City Distance Mag. Time & Date
Minimum magnitude displayed is 2.5.

Coastal Water Temperatures

Place Temperature

Stations

Nearby Weather Stations

Station Location Temp. Windchill Dew Point Humidity Wind Precip. Elev Updated Type
                   

Watches & Warnings

Freeze Warning
Issued: 2:50 PM MDT Apr. 28, 2017 – National Weather Service

... Freeze warning in effect from midnight tonight to 9 am MDT
Saturday...

The National Weather Service in Grand Junction has issued a
freeze warning, which is in effect from midnight tonight to 9 am
MDT Saturday. The freeze watch is no longer in effect.

* Locations include... Montrose, Olathe, Delta, Hotchkiss and
Paonia.

* Temperatures... widespread low temperatures from 25 to 30 degrees
will occur during the early morning hours on Saturday.

* Impacts... budding vegetation may be negatively impacted as
temperatures drop below critical thresholds. Small, exposed
water lines, such as those associated with swamp coolers,
could freeze up.

Precautionary/preparedness actions...

A freeze warning means sub-freezing temperatures are imminent or
highly likely. These conditions will kill crops and other
sensitive vegetation.